sensor_id;sensor_type;location;lat;lon;timestamp;pressure;altitude;pressure_sealevel;temperature;humidity
76858;BME280;65830;0.000;0.000;2023-01-15T00:01:45;100323.31;;;7.76;72.30
76858;BME280;65830;0.000;0.000;2023-01-15T00:04:11;100334.84;;;7.75;72.35
76858;BME280;65830;0.000;0.000;2023-01-15T00:06:38;100332.06;;;7.76;72.29
76858;BME280;65830;0.000;0.000;2023-01-15T00:09:13;100331.53;;;7.71;72.44
76858;BME280;65830;0.000;0.000;2023-01-15T00:11:42;100336.94;;;7.70;72.86
76858;BME280;65830;0.000;0.000;2023-01-15T00:14:11;100330.59;;;7.72;72.35
76858;BME280;65830;0.000;0.000;2023-01-15T00:16:39;100335.56;;;7.77;71.94
76858;BME280;65830;0.000;0.000;2023-01-15T00:19:08;100335.13;;;7.70;73.33
76858;BME280;65830;0.000;0.000;2023-01-15T00:22:03;100335.22;;;7.69;72.31
76858;BME280;65830;0.000;0.000;2023-01-15T00:24:28;100337.47;;;7.75;71.82
76858;BME280;65830;0.000;0.000;2023-01-15T00:27:13;100326.59;;;7.80;71.75
76858;BME280;65830;0.000;0.000;2023-01-15T00:29:59;100326.25;;;7.84;71.31
76858;BME280;65830;0.000;0.000;2023-01-15T00:32:24;100328.38;;;7.79;71.87
76858;BME280;65830;0.000;0.000;2023-01-15T00:34:53;100327.53;;;7.79;71.38
76858;BME280;65830;0.000;0.000;2023-01-15T00:37:20;100326.91;;;7.75;71.95
76858;BME280;65830;0.000;0.000;2023-01-15T00:39:48;100329.75;;;7.72;71.67
76858;BME280;65830;0.000;0.000;2023-01-15T00:42:14;100336.50;;;7.76;71.68
76858;BME280;65830;0.000;0.000;2023-01-15T00:44:49;100334.06;;;7.73;71.52
76858;BME280;65830;0.000;0.000;2023-01-15T00:47:17;100334.06;;;7.73;71.76
76858;BME280;65830;0.000;0.000;2023-01-15T00:49:43;100327.09;;;7.72;71.92
76858;BME280;65830;0.000;0.000;2023-01-15T00:52:14;100328.78;;;7.73;71.57
76858;BME280;65830;0.000;0.000;2023-01-15T00:54:40;100331.53;;;7.71;72.13
76858;BME280;65830;0.000;0.000;2023-01-15T00:57:05;100313.78;;;7.73;71.82
76858;BME280;65830;0.000;0.000;2023-01-15T00:59:31;100319.16;;;7.85;71.61
76858;BME280;65830;0.000;0.000;2023-01-15T01:02:05;100325.84;;;7.78;72.02
76858;BME280;65830;0.000;0.000;2023-01-15T01:04:36;100318.44;;;7.70;72.26
76858;BME280;65830;0.000;0.000;2023-01-15T01:07:02;100328.16;;;7.69;71.88
76858;BME280;65830;0.000;0.000;2023-01-15T01:09:30;100325.41;;;7.84;72.17
76858;BME280;65830;0.000;0.000;2023-01-15T01:11:58;100327.41;;;7.80;72.23
76858;BME280;65830;0.000;0.000;2023-01-15T01:14:24;100322.13;;;7.80;72.30
76858;BME280;65830;0.000;0.000;2023-01-15T01:16:49;100320.84;;;7.73;71.55
76858;BME280;65830;0.000;0.000;2023-01-15T01:19:19;100322.75;;;7.71;71.77
76858;BME280;65830;0.000;0.000;2023-01-15T01:21:45;100317.38;;;7.72;71.70
76858;BME280;65830;0.000;0.000;2023-01-15T01:24:12;100324.78;;;7.67;71.63
76858;BME280;65830;0.000;0.000;2023-01-15T01:26:40;100308.81;;;7.69;72.03
76858;BME280;65830;0.000;0.000;2023-01-15T01:29:16;100318.53;;;7.68;71.65
76858;BME280;65830;0.000;0.000;2023-01-15T01:31:48;100319.91;;;7.74;71.41
76858;BME280;65830;0.000;0.000;2023-01-15T01:34:17;100318.44;;;7.70;72.18
76858;BME280;65830;0.000;0.000;2023-01-15T01:36:43;100315.06;;;7.68;71.95
76858;BME280;65830;0.000;0.000;2023-01-15T01:39:16;100309.69;;;7.69;72.14
76858;BME280;65830;0.000;0.000;2023-01-15T01:41:43;100310.84;;;7.65;71.68
76858;BME280;65830;0.000;0.000;2023-01-15T01:46:52;100317.56;;;7.56;71.86
76858;BME280;65830;0.000;0.000;2023-01-15T01:49:19;100315.75;;;7.57;71.96
76858;BME280;65830;0.000;0.000;2023-01-15T01:51:53;100311.44;;;7.56;72.43
76858;BME280;65830;0.000;0.000;2023-01-15T01:54:20;100313.03;;;7.59;72.38
76858;BME280;65830;0.000;0.000;2023-01-15T01:56:47;100308.72;;;7.58;72.31
76858;BME280;65830;0.000;0.000;2023-01-15T01:59:19;100309.66;;;7.56;72.07
76858;BME280;65830;0.000;0.000;2023-01-15T02:01:47;100313.25;;;7.55;72.40
76858;BME280;65830;0.000;0.000;2023-01-15T02:04:13;100301.72;;;7.56;72.22
76858;BME280;65830;0.000;0.000;2023-01-15T02:06:40;100312.28;;;7.56;71.91
76858;BME280;65830;0.000;0.000;2023-01-15T02:09:11;100312.50;;;7.53;72.48
76858;BME280;65830;0.000;0.000;2023-01-15T02:11:41;100314.28;;;7.53;72.36
76858;BME280;65830;0.000;0.000;2023-01-15T02:14:26;100307.44;;;7.63;72.33
76858;BME280;65830;0.000;0.000;2023-01-15T02:17:14;100298.88;;;7.60;71.97
76858;BME280;65830;0.000;0.000;2023-01-15T02:27:37;100301.22;;;7.51;72.48
76858;BME280;65830;0.000;0.000;2023-01-15T02:30:07;100307.41;;;7.50;73.06
76858;BME280;65830;0.000;0.000;2023-01-15T02:38:00;100301.50;;;7.47;72.09
76858;BME280;65830;0.000;0.000;2023-01-15T02:40:27;100297.91;;;7.48;72.28
76858;BME280;65830;0.000;0.000;2023-01-15T02:42:53;100307.41;;;7.50;71.94
76858;BME280;65830;0.000;0.000;2023-01-15T02:45:21;100302.13;;;7.50;72.49
76858;BME280;65830;0.000;0.000;2023-01-15T02:47:52;100296.66;;;7.53;72.12
76858;BME280;65830;0.000;0.000;2023-01-15T02:50:19;100300.25;;;7.52;72.38
76858;BME280;65830;0.000;0.000;2023-01-15T02:52:48;100302.75;;;7.41;73.06
76858;BME280;65830;0.000;0.000;2023-01-15T02:55:29;100295.56;;;7.43;72.65
76858;BME280;65830;0.000;0.000;2023-01-15T02:57:58;100295.69;;;7.42;73.23
76858;BME280;65830;0.000;0.000;2023-01-15T03:00:26;100303.72;;;7.40;72.80
76858;BME280;65830;0.000;0.000;2023-01-15T03:02:58;100306.69;;;7.48;72.66
76858;BME280;65830;0.000;0.000;2023-01-15T03:05:27;100306.78;;;7.47;72.17
76858;BME280;65830;0.000;0.000;2023-01-15T03:07:56;100307.66;;;7.47;71.90
76858;BME280;65830;0.000;0.000;2023-01-15T03:10:41;100307.66;;;7.47;72.43
76858;BME280;65830;0.000;0.000;2023-01-15T03:13:20;100302.66;;;7.43;72.86
76858;BME280;65830;0.000;0.000;2023-01-15T03:16:03;100301.25;;;7.37;72.69
76858;BME280;65830;0.000;0.000;2023-01-15T03:18:54;100288.94;;;7.38;72.52
76858;BME280;65830;0.000;0.000;2023-01-15T03:21:22;100294.31;;;7.36;73.26
76858;BME280;65830;0.000;0.000;2023-01-15T03:23:52;100298.22;;;7.43;72.17
76858;BME280;65830;0.000;0.000;2023-01-15T03:26:24;100303.19;;;7.48;72.41
76858;BME280;65830;0.000;0.000;2023-01-15T03:28:51;100302.88;;;7.52;72.44
76858;BME280;65830;0.000;0.000;2023-01-15T03:31:17;100295.78;;;7.40;72.22
76858;BME280;65830;0.000;0.000;2023-01-15T03:33:43;100298.75;;;7.48;71.92
76858;BME280;65830;0.000;0.000;2023-01-15T03:36:13;100289.44;;;7.43;72.62
76858;BME280;65830;0.000;0.000;2023-01-15T03:38:43;100287.63;;;7.30;72.75
76858;BME280;65830;0.000;0.000;2023-01-15T03:44:10;100289.97;;;7.35;72.85
76858;BME280;65830;0.000;0.000;2023-01-15T03:57:43;100289.97;;;7.35;72.85
76858;BME280;65830;0.000;0.000;2023-01-15T04:00:14;100295.97;;;7.37;72.58
76858;BME280;65830;0.000;0.000;2023-01-15T04:02:47;100302.38;;;7.47;71.79
76858;BME280;65830;0.000;0.000;2023-01-15T04:05:16;100296.34;;;7.45;71.78
76858;BME280;65830;0.000;0.000;2023-01-15T04:07:45;100306.13;;;7.43;71.77
76858;BME280;65830;0.000;0.000;2023-01-15T04:10:14;100309.94;;;7.39;72.09
76858;BME280;65830;0.000;0.000;2023-01-15T04:12:39;100303.28;;;7.33;71.78
76858;BME280;65830;0.000;0.000;2023-01-15T04:15:09;100304.41;;;7.29;72.35
76858;BME280;65830;0.000;0.000;2023-01-15T04:17:35;100309.50;;;7.32;72.22
76858;BME280;65830;0.000;0.000;2023-01-15T04:20:01;100313.28;;;7.28;73.14
76858;BME280;65830;0.000;0.000;2023-01-15T04:22:28;100314.13;;;7.29;71.98
76858;BME280;65830;0.000;0.000;2023-01-15T04:24:55;100311.22;;;7.33;72.12
76858;BME280;65830;0.000;0.000;2023-01-15T04:27:20;100311.09;;;7.35;71.84
76858;BME280;65830;0.000;0.000;2023-01-15T04:29:46;100311.41;;;7.30;72.20
76858;BME280;65830;0.000;0.000;2023-01-15T04:32:11;100312.22;;;7.31;72.12
76858;BME280;65830;0.000;0.000;2023-01-15T04:34:37;100324.63;;;7.43;72.15
76858;BME280;65830;0.000;0.000;2023-01-15T04:37:02;100326.72;;;7.38;72.03
76858;BME280;65830;0.000;0.000;2023-01-15T04:39:28;100324.09;;;7.38;71.98
76858;BME280;65830;0.000;0.000;2023-01-15T04:41:53;100318.59;;;7.41;72.24
76858;BME280;65830;0.000;0.000;2023-01-15T04:44:37;100329.78;;;7.45;72.35
76858;BME280;65830;0.000;0.000;2023-01-15T04:47:03;100324.94;;;7.39;71.92
76858;BME280;65830;0.000;0.000;2023-01-15T04:49:28;100332.50;;;7.30;72.00
76858;BME280;65830;0.000;0.000;2023-01-15T04:51:54;100328.38;;;7.26;72.81
76858;BME280;65830;0.000;0.000;2023-01-15T04:54:20;100332.69;;;7.27;72.40
76858;BME280;65830;0.000;0.000;2023-01-15T04:56:47;100333.75;;;7.25;72.87
76858;BME280;65830;0.000;0.000;2023-01-15T04:59:14;100330.19;;;7.26;72.56
76858;BME280;65830;0.000;0.000;2023-01-15T05:01:40;100333.56;;;7.28;72.43
76858;BME280;65830;0.000;0.000;2023-01-15T05:04:06;100339.50;;;7.31;72.29
76858;BME280;65830;0.000;0.000;2023-01-15T05:06:32;100344.97;;;7.28;72.33
76858;BME280;65830;0.000;0.000;2023-01-15T05:08:58;100341.28;;;7.31;72.85
76858;BME280;65830;0.000;0.000;2023-01-15T05:11:23;100338.63;;;7.31;72.11
76858;BME280;65830;0.000;0.000;2023-01-15T05:13:49;100339.28;;;7.34;71.70
76858;BME280;65830;0.000;0.000;2023-01-15T05:16:24;100335.72;;;7.35;71.60
76858;BME280;65830;0.000;0.000;2023-01-15T05:18:51;100340.69;;;7.40;71.66
76858;BME280;65830;0.000;0.000;2023-01-15T05:21:23;100338.44;;;7.34;71.98
76858;BME280;65830;0.000;0.000;2023-01-15T05:23:50;100338.63;;;7.31;72.03
76858;BME280;65830;0.000;0.000;2023-01-15T05:26:16;100341.19;;;7.32;72.00
76858;BME280;65830;0.000;0.000;2023-01-15T05:28:42;100342.25;;;7.30;71.51
76858;BME280;65830;0.000;0.000;2023-01-15T05:31:08;100342.41;;;7.27;72.95
76858;BME280;65830;0.000;0.000;2023-01-15T05:33:35;100346.13;;;7.24;72.78
76858;BME280;65830;0.000;0.000;2023-01-15T05:36:02;100347.69;;;7.14;73.32
76858;BME280;65830;0.000;0.000;2023-01-15T05:38:27;100346.28;;;7.35;72.58
76858;BME280;65830;0.000;0.000;2023-01-15T05:40:53;100349.84;;;7.34;71.96
76858;BME280;65830;0.000;0.000;2023-01-15T05:43:19;100344.78;;;7.31;71.63
76858;BME280;65830;0.000;0.000;2023-01-15T05:45:44;100345.81;;;7.29;72.04
76858;BME280;65830;0.000;0.000;2023-01-15T05:48:10;100351.50;;;7.23;71.85
76858;BME280;65830;0.000;0.000;2023-01-15T05:50:35;100347.59;;;7.15;72.96
76858;BME280;65830;0.000;0.000;2023-01-15T05:53:00;100352.47;;;7.22;72.20
76858;BME280;65830;0.000;0.000;2023-01-15T05:55:26;100352.00;;;7.15;72.17
76858;BME280;65830;0.000;0.000;2023-01-15T05:57:51;100348.41;;;7.16;71.99
76858;BME280;65830;0.000;0.000;2023-01-15T06:00:17;100355.28;;;7.19;72.09
76858;BME280;65830;0.000;0.000;2023-01-15T06:02:43;100351.41;;;7.24;71.99
76858;BME280;65830;0.000;0.000;2023-01-15T06:05:08;100353.59;;;7.18;72.02
76858;BME280;65830;0.000;0.000;2023-01-15T06:07:34;100355.19;;;7.20;71.80
76858;BME280;65830;0.000;0.000;2023-01-15T06:09:59;100356.34;;;7.16;71.75
76858;BME280;65830;0.000;0.000;2023-01-15T06:12:25;100359.81;;;7.16;71.75
76858;BME280;65830;0.000;0.000;2023-01-15T06:14:50;100354.13;;;7.23;71.43
76858;BME280;65830;0.000;0.000;2023-01-15T06:17:16;100354.53;;;7.16;71.79
76858;BME280;65830;0.000;0.000;2023-01-15T06:19:41;100348.50;;;7.14;72.12
76858;BME280;65830;0.000;0.000;2023-01-15T06:22:06;100355.09;;;7.22;71.74
76858;BME280;65830;0.000;0.000;2023-01-15T06:24:32;100348.41;;;7.16;72.13
76858;BME280;65830;0.000;0.000;2023-01-15T06:26:57;100347.38;;;7.19;71.97
76858;BME280;65830;0.000;0.000;2023-01-15T06:29:23;100351.72;;;7.20;71.78
76858;BME280;65830;0.000;0.000;2023-01-15T06:31:48;100351.50;;;7.23;71.68
76858;BME280;65830;0.000;0.000;2023-01-15T06:34:14;100350.34;;;7.27;71.78
76858;BME280;65830;0.000;0.000;2023-01-15T06:36:40;100352.16;;;7.26;71.46
76858;BME280;65830;0.000;0.000;2023-01-15T06:39:05;100357.13;;;7.31;71.23
76858;BME280;65830;0.000;0.000;2023-01-15T06:41:31;100362.47;;;7.29;70.79
76858;BME280;65830;0.000;0.000;2023-01-15T06:44:15;100359.47;;;7.35;71.50
76858;BME280;65830;0.000;0.000;2023-01-15T06:47:01;100365.50;;;7.38;71.43
76858;BME280;65830;0.000;0.000;2023-01-15T06:49:46;100366.94;;;7.29;70.78
76858;BME280;65830;0.000;0.000;2023-01-15T06:52:12;100368.81;;;7.27;71.38
76858;BME280;65830;0.000;0.000;2023-01-15T06:54:37;100369.78;;;7.26;71.77
76858;BME280;65830;0.000;0.000;2023-01-15T06:57:03;100371.97;;;7.19;71.66
76858;BME280;65830;0.000;0.000;2023-01-15T06:59:28;100362.78;;;7.25;72.27
76858;BME280;65830;0.000;0.000;2023-01-15T07:01:54;100368.38;;;7.20;71.61
76858;BME280;65830;0.000;0.000;2023-01-15T07:04:20;100366.53;;;7.35;71.29
76858;BME280;65830;0.000;0.000;2023-01-15T07:06:45;100371.47;;;7.27;71.45
76858;BME280;65830;0.000;0.000;2023-01-15T07:09:11;100373.69;;;7.33;72.09
76858;BME280;65830;0.000;0.000;2023-01-15T07:11:36;100376.47;;;7.44;71.36
76858;BME280;65830;0.000;0.000;2023-01-15T07:14:23;100368.41;;;7.33;71.54
76858;BME280;65830;0.000;0.000;2023-01-15T07:16:49;100373.44;;;7.23;71.81
76858;BME280;65830;0.000;0.000;2023-01-15T07:19:14;100371.06;;;7.33;71.36
76858;BME280;65830;0.000;0.000;2023-01-15T07:21:40;100369.06;;;7.36;71.02
76858;BME280;65830;0.000;0.000;2023-01-15T07:24:06;100370.56;;;7.41;70.97
76858;BME280;65830;0.000;0.000;2023-01-15T07:26:32;100369.63;;;7.42;70.59
76858;BME280;65830;0.000;0.000;2023-01-15T07:28:57;100374.19;;;7.52;71.12
76858;BME280;65830;0.000;0.000;2023-01-15T07:31:22;100373.34;;;7.65;70.04
76858;BME280;65830;0.000;0.000;2023-01-15T07:33:48;100375.34;;;7.48;70.56
76858;BME280;65830;0.000;0.000;2023-01-15T07:36:14;100376.63;;;7.55;70.24
76858;BME280;65830;0.000;0.000;2023-01-15T07:38:39;100380.75;;;7.60;70.50
76858;BME280;65830;0.000;0.000;2023-01-15T07:41:05;100377.88;;;7.50;71.00
76858;BME280;65830;0.000;0.000;2023-01-15T07:43:49;100377.78;;;7.51;71.12
76858;BME280;65830;0.000;0.000;2023-01-15T07:46:34;100380.84;;;7.45;71.55
76858;BME280;65830;0.000;0.000;2023-01-15T07:49:18;100381.44;;;7.49;71.75
76858;BME280;65830;0.000;0.000;2023-01-15T07:52:02;100379.69;;;7.62;71.21
76858;BME280;65830;0.000;0.000;2023-01-15T07:54:28;100378.44;;;7.68;70.33
76858;BME280;65830;0.000;0.000;2023-01-15T07:56:53;100384.25;;;7.73;70.64
76858;BME280;65830;0.000;0.000;2023-01-15T07:59:20;100380.34;;;7.79;70.08
76858;BME280;65830;0.000;0.000;2023-01-15T08:01:45;100383.44;;;7.85;70.45
76858;BME280;65830;0.000;0.000;2023-01-15T08:04:11;100394.94;;;7.84;69.68
76858;BME280;65830;0.000;0.000;2023-01-15T08:06:36;100391.47;;;7.84;69.86
76858;BME280;65830;0.000;0.000;2023-01-15T08:09:02;100398.22;;;7.75;71.63
76858;BME280;65830;0.000;0.000;2023-01-15T08:11:28;100398.16;;;7.89;70.47
76858;BME280;65830;0.000;0.000;2023-01-15T08:14:12;100395.50;;;8.02;69.61
76858;BME280;65830;0.000;0.000;2023-01-15T08:16:56;100392.56;;;8.07;69.95
76858;BME280;65830;0.000;0.000;2023-01-15T08:19:21;100396.38;;;8.03;69.95
76858;BME280;65830;0.000;0.000;2023-01-15T08:21:49;100386.63;;;8.16;69.40
76858;BME280;65830;0.000;0.000;2023-01-15T08:24:15;100390.13;;;8.29;69.05
76858;BME280;65830;0.000;0.000;2023-01-15T08:26:40;100390.13;;;8.29;69.15
76858;BME280;65830;0.000;0.000;2023-01-15T08:29:06;100389.38;;;8.40;69.17
76858;BME280;65830;0.000;0.000;2023-01-15T08:31:31;100389.94;;;8.45;68.45
76858;BME280;65830;0.000;0.000;2023-01-15T08:33:57;100390.53;;;8.62;68.21
76858;BME280;65830;0.000;0.000;2023-01-15T08:36:22;100391.50;;;8.61;68.28
76858;BME280;65830;0.000;0.000;2023-01-15T08:38:48;100400.47;;;8.58;68.11
76858;BME280;65830;0.000;0.000;2023-01-15T08:41:14;100388.13;;;8.46;69.09
76858;BME280;65830;0.000;0.000;2023-01-15T08:43:40;100385.47;;;8.59;68.74
76858;BME280;65830;0.000;0.000;2023-01-15T08:46:05;100388.38;;;8.80;68.14
76858;BME280;65830;0.000;0.000;2023-01-15T08:48:31;100385.44;;;8.71;67.69
76858;BME280;65830;0.000;0.000;2023-01-15T08:50:57;100388.44;;;8.54;68.74
76858;BME280;65830;0.000;0.000;2023-01-15T08:53:23;100380.94;;;8.61;68.60
76858;BME280;65830;0.000;0.000;2023-01-15T08:55:48;100378.47;;;8.58;68.33
76858;BME280;65830;0.000;0.000;2023-01-15T08:58:14;100373.28;;;8.69;68.07
76858;BME280;65830;0.000;0.000;2023-01-15T09:00:40;100383.03;;;8.68;67.92
76858;BME280;65830;0.000;0.000;2023-01-15T09:03:06;100378.47;;;8.70;67.60
76858;BME280;65830;0.000;0.000;2023-01-15T09:05:31;100377.97;;;8.89;67.20
76858;BME280;65830;0.000;0.000;2023-01-15T09:07:57;100385.81;;;8.91;67.78
76858;BME280;65830;0.000;0.000;2023-01-15T09:10:22;100368.75;;;8.95;67.18
76858;BME280;65830;0.000;0.000;2023-01-15T09:12:48;100378.13;;;9.12;67.22
76858;BME280;65830;0.000;0.000;2023-01-15T09:15:13;100378.25;;;9.10;66.98
76858;BME280;65830;0.000;0.000;2023-01-15T09:17:39;100372.72;;;9.13;66.79
76858;BME280;65830;0.000;0.000;2023-01-15T09:20:08;100366.75;;;9.23;66.42
76858;BME280;65830;0.000;0.000;2023-01-15T09:22:34;100373.13;;;8.96;66.59
76858;BME280;65830;0.000;0.000;2023-01-15T09:25:00;100365.91;;;8.98;66.66
76858;BME280;65830;0.000;0.000;2023-01-15T09:27:28;100355.78;;;8.92;67.60
76858;BME280;65830;0.000;0.000;2023-01-15T09:29:54;100355.72;;;9.05;67.06
76858;BME280;65830;0.000;0.000;2023-01-15T09:32:20;100352.88;;;9.19;66.48
76858;BME280;65830;0.000;0.000;2023-01-15T09:34:45;100353.50;;;9.23;66.32
76858;BME280;65830;0.000;0.000;2023-01-15T09:37:11;100347.41;;;9.09;66.56
76858;BME280;65830;0.000;0.000;2023-01-15T09:39:37;100347.69;;;8.93;66.03
76858;BME280;65830;0.000;0.000;2023-01-15T09:44:42;100341.34;;;8.96;66.29
76858;BME280;65830;0.000;0.000;2023-01-15T09:47:17;100341.91;;;9.12;67.00
76858;BME280;65830;0.000;0.000;2023-01-15T09:50:26;100333.41;;;9.20;66.30
76858;BME280;65830;0.000;0.000;2023-01-15T09:55:20;100338.81;;;9.19;65.79
76858;BME280;65830;0.000;0.000;2023-01-15T09:57:49;100335.31;;;9.18;65.71
76858;BME280;65830;0.000;0.000;2023-01-15T10:00:17;100332.44;;;9.21;65.60
76858;BME280;65830;0.000;0.000;2023-01-15T10:08:24;100323.50;;;9.11;65.49
76858;BME280;65830;0.000;0.000;2023-01-15T10:10:46;100313.13;;;9.08;65.44
76858;BME280;65830;0.000;0.000;2023-01-15T10:13:18;100316.72;;;9.07;65.55
76858;BME280;65830;0.000;0.000;2023-01-15T10:15:47;100315.06;;;9.06;64.89
76858;BME280;65830;0.000;0.000;2023-01-15T10:18:13;100307.56;;;9.24;65.39
76858;BME280;65830;0.000;0.000;2023-01-15T10:23:19;100291.16;;;9.19;65.92
76858;BME280;65830;0.000;0.000;2023-01-15T10:25:54;100286.03;;;9.04;65.91
76858;BME280;65830;0.000;0.000;2023-01-15T10:28:30;100291.81;;;9.09;65.98
76858;BME280;65830;0.000;0.000;2023-01-15T10:30:59;100282.41;;;8.94;66.03
76858;BME280;65830;0.000;0.000;2023-01-15T10:36:07;100273.91;;;9.13;66.55
76858;BME280;65830;0.000;0.000;2023-01-15T10:38:47;100272.16;;;9.25;66.25
76858;BME280;65830;0.000;0.000;2023-01-15T10:41:29;100263.03;;;9.29;65.59
76858;BME280;65830;0.000;0.000;2023-01-15T10:46:24;100250.97;;;9.25;65.59
76858;BME280;65830;0.000;0.000;2023-01-15T10:49:16;100259.03;;;9.23;65.30
76858;BME280;65830;0.000;0.000;2023-01-15T10:54:15;100253.19;;;9.42;65.06
76858;BME280;65830;0.000;0.000;2023-01-15T10:56:45;100245.72;;;9.36;65.47
76858;BME280;65830;0.000;0.000;2023-01-15T11:01:37;100233.34;;;9.48;64.69
76858;BME280;65830;0.000;0.000;2023-01-15T11:04:03;100237.16;;;9.32;65.13
76858;BME280;65830;0.000;0.000;2023-01-15T11:06:29;100232.84;;;9.43;65.45
76858;BME280;65830;0.000;0.000;2023-01-15T11:08:56;100229.75;;;9.60;65.21
76858;BME280;65830;0.000;0.000;2023-01-15T11:11:23;100221.19;;;9.68;64.67
76858;BME280;65830;0.000;0.000;2023-01-15T11:14:08;100227.69;;;9.64;65.20
76858;BME280;65830;0.000;0.000;2023-01-15T11:16:52;100217.22;;;9.62;64.73
76858;BME280;65830;0.000;0.000;2023-01-15T11:19:34;100208.78;;;9.68;64.69
76858;BME280;65830;0.000;0.000;2023-01-15T11:22:07;100216.38;;;9.73;64.50
76858;BME280;65830;0.000;0.000;2023-01-15T11:24:43;100210.97;;;9.86;63.81
76858;BME280;65830;0.000;0.000;2023-01-15T11:27:12;100210.72;;;9.66;63.91
76858;BME280;65830;0.000;0.000;2023-01-15T11:29:38;100205.53;;;9.65;64.38
76858;BME280;65830;0.000;0.000;2023-01-15T11:32:03;100205.19;;;9.69;65.02
76858;BME280;65830;0.000;0.000;2023-01-15T11:34:50;100205.66;;;9.86;64.55
76858;BME280;65830;0.000;0.000;2023-01-15T11:37:16;100201.94;;;9.66;64.31
76858;BME280;65830;0.000;0.000;2023-01-15T11:39:50;100200.91;;;9.33;65.06
76858;BME280;65830;0.000;0.000;2023-01-15T11:42:18;100192.03;;;9.34;65.42
76858;BME280;65830;0.000;0.000;2023-01-15T11:45:10;100187.44;;;9.47;65.33
76858;BME280;65830;0.000;0.000;2023-01-15T11:47:54;100191.91;;;9.47;65.70
76858;BME280;65830;0.000;0.000;2023-01-15T11:50:56;100186.13;;;9.53;64.83
76858;BME280;65830;0.000;0.000;2023-01-15T11:53:26;100185.06;;;9.56;64.91
76858;BME280;65830;0.000;0.000;2023-01-15T11:58:28;100186.25;;;9.40;64.81
76858;BME280;65830;0.000;0.000;2023-01-15T12:00:56;100182.63;;;9.41;64.67
76858;BME280;65830;0.000;0.000;2023-01-15T12:03:29;100175.06;;;9.48;65.09
76858;BME280;65830;0.000;0.000;2023-01-15T12:06:00;100166.50;;;9.44;65.00
76858;BME280;65830;0.000;0.000;2023-01-15T12:13:50;100163.38;;;9.62;64.91
76858;BME280;65830;0.000;0.000;2023-01-15T12:24:50;100146.63;;;9.39;64.19
76858;BME280;65830;0.000;0.000;2023-01-15T12:30:02;100142.41;;;9.59;64.82
76858;BME280;65830;0.000;0.000;2023-01-15T12:32:38;100138.06;;;9.69;64.32
76858;BME280;65830;0.000;0.000;2023-01-15T12:35:17;100138.56;;;9.74;64.20
76858;BME280;65830;0.000;0.000;2023-01-15T12:37:51;100129.50;;;9.99;63.76
76858;BME280;65830;0.000;0.000;2023-01-15T12:42:44;100135.53;;;10.01;63.13
76858;BME280;65830;0.000;0.000;2023-01-15T12:45:35;100133.59;;;9.92;63.34
76858;BME280;65830;0.000;0.000;2023-01-15T12:50:35;100138.63;;;10.18;62.73
76858;BME280;65830;0.000;0.000;2023-01-15T12:53:13;100126.69;;;10.12;62.47
76858;BME280;65830;0.000;0.000;2023-01-15T12:55:49;100126.47;;;10.04;63.13
76858;BME280;65830;0.000;0.000;2023-01-15T12:58:20;100133.31;;;10.18;63.20
76858;BME280;65830;0.000;0.000;2023-01-15T13:00:54;100124.75;;;10.14;63.36
76858;BME280;65830;0.000;0.000;2023-01-15T13:03:33;100125.97;;;10.10;63.70
76858;BME280;65830;0.000;0.000;2023-01-15T13:06:03;100115.50;;;10.08;63.19
76858;BME280;65830;0.000;0.000;2023-01-15T13:08:52;100119.75;;;10.00;63.60
76858;BME280;65830;0.000;0.000;2023-01-15T13:11:18;100130.06;;;10.03;63.84
76858;BME280;65830;0.000;0.000;2023-01-15T13:13:44;100125.66;;;10.03;63.22
76858;BME280;65830;0.000;0.000;2023-01-15T13:21:26;100118.84;;;10.22;62.90
76858;BME280;65830;0.000;0.000;2023-01-15T13:29:14;100116.03;;;10.34;63.17
76858;BME280;65830;0.000;0.000;2023-01-15T13:31:48;100111.47;;;10.37;62.95
76858;BME280;65830;0.000;0.000;2023-01-15T13:36:45;100117.03;;;10.33;62.02
76858;BME280;65830;0.000;0.000;2023-01-15T13:39:14;100106.06;;;10.27;62.78
76858;BME280;65830;0.000;0.000;2023-01-15T13:41:42;100114.00;;;10.27;63.43
76858;BME280;65830;0.000;0.000;2023-01-15T13:44:28;100110.75;;;10.23;63.11
76858;BME280;65830;0.000;0.000;2023-01-15T13:47:05;100112.69;;;10.21;63.03
76858;BME280;65830;0.000;0.000;2023-01-15T13:49:33;100102.13;;;9.99;63.35
76858;BME280;65830;0.000;0.000;2023-01-15T13:52:00;100112.38;;;10.03;63.72
76858;BME280;65830;0.000;0.000;2023-01-15T13:54:29;100107.09;;;9.92;63.89
76858;BME280;65830;0.000;0.000;2023-01-15T13:57:08;100104.44;;;9.92;63.97
76858;BME280;65830;0.000;0.000;2023-01-15T13:59:42;100102.69;;;9.81;64.62
76858;BME280;65830;0.000;0.000;2023-01-15T14:05:23;100097.50;;;9.68;64.13
76858;BME280;65830;0.000;0.000;2023-01-15T14:07:50;100097.13;;;9.73;63.90
76858;BME280;65830;0.000;0.000;2023-01-15T14:13:05;100095.69;;;9.69;64.11
76858;BME280;65830;0.000;0.000;2023-01-15T14:28:17;100089.34;;;9.26;65.26
76858;BME280;65830;0.000;0.000;2023-01-15T14:33:37;100083.91;;;9.39;64.63
76858;BME280;65830;0.000;0.000;2023-01-15T14:43:58;100084.63;;;9.07;65.49
76858;BME280;65830;0.000;0.000;2023-01-15T14:46:31;100085.13;;;9.12;65.71
76858;BME280;65830;0.000;0.000;2023-01-15T14:49:03;100085.94;;;9.13;65.40
76858;BME280;65830;0.000;0.000;2023-01-15T14:51:33;100085.22;;;9.11;65.31
76858;BME280;65830;0.000;0.000;2023-01-15T15:01:35;100092.81;;;9.04;65.20
76858;BME280;65830;0.000;0.000;2023-01-15T15:06:59;100097.72;;;8.86;65.84
76858;BME280;65830;0.000;0.000;2023-01-15T15:09:26;100100.47;;;8.85;65.60
76858;BME280;65830;0.000;0.000;2023-01-15T15:27:21;100093.22;;;8.64;66.29
76858;BME280;65830;0.000;0.000;2023-01-15T15:29:47;100099.44;;;8.63;66.24
76858;BME280;65830;0.000;0.000;2023-01-15T15:32:22;100097.31;;;8.68;66.13
76858;BME280;65830;0.000;0.000;2023-01-15T15:34:49;100101.63;;;8.69;65.64
76858;BME280;65830;0.000;0.000;2023-01-15T15:37:20;100101.88;;;8.66;65.88
76858;BME280;65830;0.000;0.000;2023-01-15T15:40:04;100098.38;;;8.66;66.05
76858;BME280;65830;0.000;0.000;2023-01-15T15:42:40;100102.19;;;8.62;65.76
76858;BME280;65830;0.000;0.000;2023-01-15T15:45:26;100108.06;;;8.54;66.39
76858;BME280;65830;0.000;0.000;2023-01-15T15:48:12;100106.97;;;8.45;66.27
76858;BME280;65830;0.000;0.000;2023-01-15T15:51:01;100102.41;;;8.47;66.15